Terminal Aerodrome Forecast
Issued by NWS Pocatello, ID

Current Version | Previous Version | Text Only | Print | Product List | Glossary On
Versions: 1 2 3 4 5 6 7 8 9 10 11 12 13 14
000
FTUS45 KPIH 010500
TAFBYI
TAF
KBYI 010520Z 0106/0206 VRB04KT P6SM FEW100 SCT130 SCT180
     FM011800 VRB04KT P6SM VCSH FEW090 FEW160=

USA.gov is the U.S. government's official web portal to all federal, state and local government web resources and services.